createdAt,value
2018-07-26T00:00:31.061Z,20.4
2018-07-26T00:06:01.887Z,20.4
2018-07-26T00:11:26.627Z,20.4
2018-07-26T00:17:01.112Z,20.4
2018-07-26T00:22:26.824Z,20.4
2018-07-26T00:28:01.961Z,20.4
2018-07-26T00:33:26.349Z,20.3
2018-07-26T00:38:56.014Z,20.3
2018-07-26T00:44:31.761Z,20.4
2018-07-26T00:49:56.527Z,20.5
2018-07-26T00:55:27.520Z,20.5
2018-07-26T01:01:02.951Z,20.6
2018-07-26T01:06:27.937Z,20.6
2018-07-26T01:11:58.914Z,20.6
2018-07-26T01:17:28.199Z,20.7
2018-07-26T01:23:04.014Z,20.7
2018-07-26T01:28:29.984Z,20.7
2018-07-26T01:34:05.826Z,20.8
2018-07-26T01:39:31.938Z,20.8
2018-07-26T01:45:01.382Z,20.8
2018-07-26T01:50:31.777Z,20.8
2018-07-26T01:56:06.500Z,20.8
2018-07-26T02:01:36.438Z,20.8
2018-07-26T02:07:02.051Z,20.8
2018-07-26T02:12:37.106Z,20.8
2018-07-26T02:18:01.822Z,20.7
2018-07-26T02:23:31.399Z,20.7
2018-07-26T02:29:01.190Z,20.7
2018-07-26T02:34:30.817Z,20.7
2018-07-26T02:40:01.856Z,20.6
2018-07-26T02:45:37.329Z,20.5
2018-07-26T02:51:02.107Z,20.5
2018-07-26T02:56:31.886Z,20.5
2018-07-26T03:02:07.636Z,20.5
2018-07-26T03:07:32.213Z,20.5
2018-07-26T03:13:01.986Z,20.5
2018-07-26T03:18:32.932Z,20.4
2018-07-26T03:24:03.403Z,20.4
2018-07-26T03:29:34.275Z,20.4
2018-07-26T03:35:09.851Z,20.4
2018-07-26T03:40:34.593Z,20.4
2018-07-26T03:46:05.529Z,20.3
2018-07-26T03:51:40.072Z,20.4
2018-07-26T03:57:04.781Z,20.4
2018-07-26T04:02:39.469Z,20.4
2018-07-26T04:08:05.462Z,20.4
2018-07-26T04:13:34.908Z,20.4
2018-07-26T04:19:09.953Z,20.5
2018-07-26T04:24:39.424Z,20.5
2018-07-26T04:30:09.207Z,20.5
2018-07-26T04:35:39.826Z,20.5
2018-07-26T04:41:10.602Z,20.6
2018-07-26T04:46:36.276Z,20.6
2018-07-26T04:52:12.065Z,20.7
2018-07-26T04:57:41.765Z,20.8
2018-07-26T05:03:06.527Z,20.8
2018-07-26T05:08:36.294Z,20.9
2018-07-26T05:14:06.032Z,20.9
2018-07-26T05:19:42.113Z,20.9
2018-07-26T05:25:07.571Z,21
2018-07-26T05:30:37.437Z,21
2018-07-26T05:36:08.137Z,21.1
2018-07-26T05:41:44.080Z,21.2
2018-07-26T05:47:09.734Z,21.2
2018-07-26T05:52:40.652Z,21.3
2018-07-26T05:58:10.336Z,21.4
2018-07-26T06:03:41.180Z,21.5
2018-07-26T06:09:12.006Z,21.5
2018-07-26T06:14:41.909Z,21.6
2018-07-26T06:20:12.946Z,21.7
2018-07-26T06:25:43.700Z,21.8
2018-07-26T06:31:13.440Z,21.8
2018-07-26T06:36:49.685Z,21.9
2018-07-26T06:42:14.407Z,22
2018-07-26T06:47:45.083Z,22
2018-07-26T06:53:19.966Z,22.1
2018-07-26T07:04:16.007Z,22.3
2018-07-26T07:09:50.683Z,22.3
2018-07-26T07:15:15.614Z,22.4
2018-07-26T07:20:47.116Z,22.5
2018-07-26T07:26:16.415Z,22.5
2018-07-26T07:31:51.774Z,22.6
2018-07-26T07:37:16.357Z,22.7
2018-07-26T07:42:47.338Z,22.8
2018-07-26T07:48:22.591Z,22.8
2018-07-26T07:53:52.288Z,22.9
2018-07-26T07:59:17.534Z,23
2018-07-26T08:04:48.568Z,23
2018-07-26T08:10:19.497Z,23.1
2018-07-26T08:15:49.503Z,23.2
2018-07-26T08:21:19.423Z,23.2
2018-07-26T08:26:49.455Z,23.3
2018-07-26T08:32:19.473Z,23.4
2018-07-26T08:37:49.593Z,23.5
2018-07-26T08:43:25.757Z,23.6
2018-07-26T08:48:50.900Z,23.7
2018-07-26T08:54:26.048Z,23.7
2018-07-26T08:59:51.209Z,23.8
2018-07-26T09:05:21.817Z,23.8
2018-07-26T09:10:53.042Z,23.9
2018-07-26T09:16:24.174Z,23.9
2018-07-26T09:21:54.145Z,24
2018-07-26T09:27:25.401Z,24.1
2018-07-26T09:32:57.471Z,24.1
2018-07-26T09:38:27.591Z,24.2
2018-07-26T09:43:58.805Z,24.3
2018-07-26T09:49:29.880Z,24.4
2018-07-26T09:55:00.202Z,24.5
2018-07-26T10:00:30.239Z,24.6
2018-07-26T10:06:06.608Z,24.8
2018-07-26T10:11:37.701Z,24.8
2018-07-26T10:17:03.961Z,24.8
2018-07-26T10:22:34.327Z,24.9
2018-07-26T10:28:05.311Z,24.9
2018-07-26T10:33:36.510Z,25
2018-07-26T10:39:07.816Z,25.1
2018-07-26T10:44:38.082Z,25.1
2018-07-26T10:50:14.287Z,25.1
2018-07-26T10:55:44.602Z,25.2
2018-07-26T11:01:10.800Z,25.3
2018-07-26T11:06:41.166Z,25.3
2018-07-26T11:12:12.383Z,25.4
2018-07-26T11:17:42.756Z,25.5
2018-07-26T11:23:12.993Z,25.5
2018-07-26T11:28:43.600Z,25.5
2018-07-26T11:34:14.262Z,25.5
2018-07-26T11:39:50.104Z,25.6
2018-07-26T11:45:17.147Z,25.8
2018-07-26T11:50:51.857Z,25.8
2018-07-26T11:56:16.957Z,25.8
2018-07-26T12:01:49.421Z,25.9
2018-07-26T12:01:53.653Z,25.9
2018-07-26T12:07:18.952Z,26
2018-07-26T12:12:50.393Z,26.1
2018-07-26T12:12:51.324Z,26.1
2018-07-26T12:18:21.464Z,26.1
2018-07-26T12:18:27.919Z,26.1
2018-07-26T12:23:52.906Z,26.2
2018-07-26T12:29:23.253Z,26.2
2018-07-26T12:34:54.655Z,26.2
2018-07-26T12:40:26.445Z,26.3
2018-07-26T12:46:01.804Z,26.4
2018-07-26T12:51:27.187Z,26.5
2018-07-26T12:56:58.404Z,26.5
2018-07-26T13:02:30.111Z,26.5
2018-07-26T13:08:01.685Z,26.5
2018-07-26T13:08:01.716Z,26.5
2018-07-26T13:13:34.722Z,26.6
2018-07-26T13:19:03.231Z,26.7
2018-07-26T13:24:33.875Z,26.7
2018-07-26T13:30:05.246Z,26.8
2018-07-26T13:35:36.759Z,26.8
2018-07-26T13:41:13.153Z,26.8
2018-07-26T13:46:38.627Z,26.9
2018-07-26T13:52:10.407Z,26.9
2018-07-26T13:57:40.754Z,27
2018-07-26T14:03:11.142Z,27
2018-07-26T14:08:42.673Z,27.1
2018-07-26T14:14:13.199Z,27
2018-07-26T14:19:44.958Z,27.1
2018-07-26T14:25:20.655Z,27.1
2018-07-26T14:30:50.756Z,27.1
2018-07-26T14:36:22.335Z,27.1
2018-07-26T14:41:49.072Z,27.2
2018-07-26T14:47:19.444Z,27.3
2018-07-26T14:52:50.988Z,27.4
2018-07-26T14:58:21.535Z,27.4
2018-07-26T15:03:52.179Z,27.4
2018-07-26T15:09:28.922Z,27.3
2018-07-26T15:15:00.313Z,27.3
2018-07-26T15:20:31.263Z,27.3
2018-07-26T15:25:57.318Z,27.3
2018-07-26T15:31:28.196Z,27.2
2018-07-26T15:36:59.373Z,27.1
2018-07-26T15:42:31.171Z,27
2018-07-26T15:48:07.791Z,27
2018-07-26T15:53:34.155Z,26.9
2018-07-26T15:59:09.405Z,26.8
2018-07-26T16:04:35.958Z,26.8
2018-07-26T16:10:11.390Z,26.8
2018-07-26T16:15:37.929Z,26.7
2018-07-26T16:15:42.109Z,26.7
2018-07-26T16:21:08.349Z,26.7
2018-07-26T16:26:43.993Z,26.7
2018-07-26T16:32:09.333Z,26.8
2018-07-26T16:37:39.927Z,26.9
2018-07-26T16:43:10.546Z,26.8
2018-07-26T16:48:41.353Z,26.8
2018-07-26T16:54:12.368Z,26.7
2018-07-26T16:59:48.068Z,26.7
2018-07-26T17:05:14.269Z,26.7
2018-07-26T17:10:44.750Z,26.6
2018-07-26T17:16:15.250Z,26.5
2018-07-26T17:21:51.674Z,26.4
2018-07-26T17:27:17.121Z,26.3
2018-07-26T17:32:47.552Z,26.2
2018-07-26T17:38:17.943Z,26.1
2018-07-26T17:43:49.377Z,26
2018-07-26T17:49:18.742Z,26
2018-07-26T17:54:55.286Z,26
2018-07-26T18:00:25.809Z,25.9
2018-07-26T18:05:51.217Z,25.9
2018-07-26T18:11:21.526Z,25.8
2018-07-26T18:16:51.900Z,25.7
2018-07-26T18:22:28.529Z,25.6
2018-07-26T18:27:54.320Z,25.5
2018-07-26T18:33:25.677Z,25.4
2018-07-26T18:39:01.012Z,25.3
2018-07-26T18:44:26.383Z,25.3
2018-07-26T18:49:56.583Z,25.2
2018-07-26T18:55:31.889Z,25.1
2018-07-26T19:00:57.156Z,25.1
2018-07-26T19:06:28.413Z,25
2018-07-26T19:12:05.296Z,24.9
2018-07-26T19:17:30.450Z,24.9
2018-07-26T19:23:01.191Z,24.8
2018-07-26T19:28:31.549Z,24.7
2018-07-26T19:34:01.603Z,24.6
2018-07-26T19:39:36.812Z,24.5
2018-07-26T19:45:02.130Z,24.3
2018-07-26T19:50:33.167Z,24.2
2018-07-26T19:56:03.974Z,24.1
2018-07-26T20:01:39.730Z,24
2018-07-26T20:07:09.584Z,23.9
2018-07-26T20:12:40.075Z,23.9
2018-07-26T20:18:05.841Z,23.8
2018-07-26T20:23:36.687Z,23.7
2018-07-26T20:29:11.067Z,23.6
2018-07-26T20:34:42.181Z,23.5
2018-07-26T20:40:12.387Z,23.4
2018-07-26T20:45:42.469Z,23.4
2018-07-26T20:51:12.481Z,23.3
2018-07-26T20:56:42.417Z,23.3
2018-07-26T21:02:13.443Z,23.2
2018-07-26T21:07:39.606Z,23.2
2018-07-26T21:13:10.710Z,23.1
2018-07-26T21:18:41.462Z,23.1
2018-07-26T21:24:17.510Z,23
2018-07-26T21:29:42.587Z,23
2018-07-26T21:35:12.852Z,22.9
2018-07-26T21:40:42.575Z,22.8
2018-07-26T21:46:17.454Z,22.7
2018-07-26T21:51:47.720Z,22.7
2018-07-26T21:57:17.402Z,22.7
2018-07-26T22:02:42.385Z,22.7
2018-07-26T22:08:13.532Z,22.6
2018-07-26T22:13:50.398Z,22.6
2018-07-26T22:19:14.233Z,22.5
2018-07-26T22:24:45.532Z,22.5
2018-07-26T22:30:15.222Z,22.4
2018-07-26T22:30:16.167Z,22.4
2018-07-26T22:35:51.050Z,22.4
2018-07-26T22:41:16.976Z,22.3
2018-07-26T22:41:17.802Z,22.3
2018-07-26T22:46:51.897Z,22.2
2018-07-26T22:52:17.934Z,22.2
2018-07-26T22:57:48.969Z,22.2
2018-07-26T23:03:24.190Z,22.1
2018-07-26T23:08:49.516Z,22.1
2018-07-26T23:14:19.702Z,22
2018-07-26T23:19:55.602Z,22
2018-07-26T23:25:26.162Z,22
2018-07-26T23:30:51.227Z,22
2018-07-26T23:36:21.941Z,21.9
2018-07-26T23:41:57.812Z,21.9
2018-07-26T23:47:22.606Z,21.8
2018-07-26T23:52:52.449Z,21.7
2018-07-26T23:58:28.304Z,21.6
